createdAt,value
2023-12-09T00:00:10.241Z,3.70
2023-12-09T00:02:37.829Z,5.50
2023-12-09T00:05:05.945Z,3.50
2023-12-09T00:07:33.561Z,3.50
2023-12-09T00:10:01.226Z,4.80
2023-12-09T00:12:29.005Z,4.20
2023-12-09T00:14:56.913Z,5.00
2023-12-09T00:30:24.039Z,11.30
2023-12-09T00:32:51.864Z,3.60
2023-12-09T00:35:19.727Z,4.20
2023-12-09T00:37:47.409Z,5.80
2023-12-09T00:40:14.987Z,4.50
2023-12-09T00:42:42.845Z,4.30
2023-12-09T00:45:10.748Z,5.20
2023-12-09T00:47:38.405Z,4.80
2023-12-09T00:50:07.160Z,4.00
2023-12-09T00:52:34.801Z,4.40
2023-12-09T00:55:02.457Z,4.00
2023-12-09T00:57:30.063Z,6.70
2023-12-09T00:59:57.798Z,6.10
2023-12-09T01:02:25.881Z,5.00
2023-12-09T01:04:53.951Z,5.80
2023-12-09T01:07:21.600Z,4.40
2023-12-09T01:09:49.172Z,5.30
2023-12-09T01:12:16.975Z,4.60
2023-12-09T01:14:45.295Z,5.80
2023-12-09T01:17:12.849Z,6.90
2023-12-09T01:19:40.442Z,4.50
2023-12-09T01:22:08.188Z,4.20
2023-12-09T01:24:36.040Z,4.90
2023-12-09T01:27:03.845Z,4.60
2023-12-09T01:29:31.389Z,4.60
2023-12-09T01:31:59.030Z,4.50
2023-12-09T01:34:26.727Z,4.80
2023-12-09T01:36:55.485Z,4.40
2023-12-09T01:39:23.061Z,4.90
2023-12-09T01:41:50.638Z,4.50
2023-12-09T01:44:18.674Z,5.10
2023-12-09T01:46:46.241Z,5.10
2023-12-09T01:49:15.492Z,3.30
2023-12-09T01:51:43.963Z,5.60
2023-12-09T01:54:11.615Z,4.60
2023-12-09T01:56:39.445Z,3.40
2023-12-09T01:59:07.323Z,4.50
2023-12-09T02:01:35.077Z,5.20
2023-12-09T02:04:03.041Z,5.40
2023-12-09T02:06:30.819Z,5.70
2023-12-09T02:08:58.866Z,5.30
2023-12-09T02:11:26.498Z,5.30
2023-12-09T02:14:05.926Z,6.60
2023-12-09T02:16:44.908Z,5.00
2023-12-09T02:19:14.750Z,3.10
2023-12-09T02:22:02.574Z,3.40
2023-12-09T02:24:30.241Z,3.90
2023-12-09T02:27:19.437Z,5.40
2023-12-09T02:29:56.200Z,5.30
2023-12-09T02:32:26.134Z,5.90
2023-12-09T02:34:54.051Z,4.50
2023-12-09T02:37:21.975Z,4.60
2023-12-09T02:39:49.729Z,4.50
2023-12-09T02:42:17.315Z,5.50
2023-12-09T02:44:44.897Z,5.50
2023-12-09T02:47:15.835Z,3.50
2023-12-09T02:49:44.161Z,4.70
2023-12-09T02:52:12.436Z,5.10
2023-12-09T02:54:40.009Z,3.70
2023-12-09T02:57:07.719Z,3.30
2023-12-09T02:59:35.694Z,4.30
2023-12-09T03:02:03.352Z,4.40
2023-12-09T03:04:32.543Z,3.60
2023-12-09T03:07:00.114Z,4.30
2023-12-09T03:09:27.805Z,5.00
2023-12-09T03:11:55.566Z,3.70
2023-12-09T03:14:24.022Z,5.10
2023-12-09T03:16:51.572Z,3.80
2023-12-09T03:19:19.336Z,4.90
2023-12-09T03:21:47.133Z,6.30
2023-12-09T03:24:14.898Z,3.20
2023-12-09T03:26:42.527Z,3.90
2023-12-09T03:29:10.121Z,4.30
2023-12-09T03:31:40.980Z,4.70
2023-12-09T03:34:08.908Z,4.50
2023-12-09T03:36:36.602Z,4.30
2023-12-09T03:39:05.076Z,3.80
2023-12-09T03:41:32.705Z,5.30
2023-12-09T03:44:00.516Z,3.60
2023-12-09T03:46:28.136Z,4.30
2023-12-09T03:48:55.941Z,6.00
2023-12-09T03:51:23.791Z,5.60
2023-12-09T03:53:51.595Z,4.40
2023-12-09T03:56:19.202Z,4.70
2023-12-09T03:58:46.794Z,5.10
2023-12-09T04:01:14.451Z,5.70
2023-12-09T04:03:42.313Z,6.60
2023-12-09T04:06:10.188Z,4.30
2023-12-09T04:08:37.955Z,3.40
2023-12-09T04:11:06.473Z,5.20
2023-12-09T04:13:34.481Z,4.70
2023-12-09T04:16:02.432Z,4.20
2023-12-09T04:18:30.202Z,4.30
2023-12-09T04:20:58.915Z,4.90
2023-12-09T04:23:26.550Z,4.90
2023-12-09T04:25:54.218Z,5.40
2023-12-09T04:28:21.867Z,5.50
2023-12-09T04:30:49.544Z,4.30
2023-12-09T04:33:17.211Z,4.40
2023-12-09T04:35:44.861Z,4.10
2023-12-09T04:38:12.623Z,6.30
2023-12-09T04:40:40.186Z,5.80
2023-12-09T04:43:07.845Z,4.70
2023-12-09T04:45:35.423Z,4.40
2023-12-09T04:48:04.642Z,5.20
2023-12-09T04:50:32.268Z,4.10
2023-12-09T04:52:59.774Z,4.00
2023-12-09T04:55:27.800Z,4.40
2023-12-09T04:57:55.567Z,4.50
2023-12-09T05:00:23.480Z,4.80
2023-12-09T05:02:51.952Z,4.40
2023-12-09T05:05:20.452Z,5.50
2023-12-09T05:07:48.165Z,5.00
2023-12-09T05:10:15.668Z,4.20
2023-12-09T05:12:43.310Z,4.60
2023-12-09T05:15:12.333Z,5.10
2023-12-09T05:17:40.150Z,7.10
2023-12-09T05:20:11.156Z,4.90
2023-12-09T05:22:39.037Z,4.00
2023-12-09T05:25:07.370Z,5.30
2023-12-09T05:27:34.946Z,4.40
2023-12-09T05:30:02.685Z,3.90
2023-12-09T05:32:30.650Z,6.00
2023-12-09T05:34:58.373Z,4.80
2023-12-09T05:37:25.981Z,4.40
2023-12-09T05:39:53.700Z,4.90
2023-12-09T05:42:21.284Z,6.30
2023-12-09T05:44:48.820Z,5.70
2023-12-09T05:47:16.387Z,4.20
2023-12-09T05:49:44.102Z,5.50
2023-12-09T05:52:11.812Z,4.70
2023-12-09T05:54:39.403Z,5.80
2023-12-09T05:57:07.103Z,4.10
2023-12-09T05:59:34.810Z,6.60
2023-12-09T06:02:02.306Z,5.20
2023-12-09T06:04:30.050Z,5.90
2023-12-09T06:06:57.901Z,3.60
2023-12-09T06:09:25.671Z,4.70
2023-12-09T06:11:53.444Z,3.90
2023-12-09T06:14:21.186Z,4.70
2023-12-09T06:16:49.060Z,4.40
2023-12-09T06:19:16.709Z,5.30
2023-12-09T06:21:44.526Z,3.90
2023-12-09T06:24:16.547Z,5.60
2023-12-09T06:26:45.881Z,5.50
2023-12-09T06:29:16.948Z,6.00
2023-12-09T06:31:44.562Z,6.80
2023-12-09T06:34:12.367Z,6.00
2023-12-09T06:36:40.112Z,4.70
2023-12-09T06:39:07.892Z,7.50
2023-12-09T06:41:39.502Z,6.40
2023-12-09T06:44:07.258Z,5.30
2023-12-09T06:46:38.401Z,5.80
2023-12-09T06:49:07.029Z,4.30
2023-12-09T06:51:34.898Z,4.20
2023-12-09T06:54:03.256Z,5.60
2023-12-09T06:56:31.009Z,4.90
2023-12-09T06:58:58.562Z,6.90
2023-12-09T07:01:28.443Z,4.40
2023-12-09T07:03:56.751Z,4.30
2023-12-09T07:06:25.781Z,6.20
2023-12-09T07:08:54.439Z,5.40
2023-12-09T07:11:22.964Z,4.40
2023-12-09T07:13:50.724Z,6.90
2023-12-09T07:16:19.874Z,5.90
2023-12-09T07:18:48.582Z,5.90
2023-12-09T07:21:16.867Z,5.50
2023-12-09T07:23:46.448Z,3.60
2023-12-09T07:26:15.048Z,4.00
2023-12-09T07:28:42.735Z,4.70
2023-12-09T07:31:10.675Z,5.50
2023-12-09T07:33:40.005Z,4.90
2023-12-09T07:36:08.964Z,4.40
2023-12-09T07:38:47.335Z,5.20
2023-12-09T07:41:30.328Z,5.20
2023-12-09T07:44:03.790Z,4.50
2023-12-09T07:46:35.304Z,4.50
2023-12-09T07:49:03.786Z,6.50
2023-12-09T07:51:31.526Z,5.90
2023-12-09T07:53:59.186Z,6.00
2023-12-09T07:56:26.912Z,4.70
2023-12-09T07:58:54.577Z,5.20
2023-12-09T08:01:22.300Z,5.30
2023-12-09T08:03:50.258Z,4.50
2023-12-09T08:06:18.334Z,4.90
2023-12-09T08:08:46.051Z,3.80
2023-12-09T08:11:13.892Z,4.40
2023-12-09T08:13:44.362Z,3.90
2023-12-09T08:16:12.109Z,3.00
2023-12-09T08:18:39.772Z,5.30
2023-12-09T08:21:07.648Z,5.30
2023-12-09T08:23:35.601Z,5.00
2023-12-09T08:26:05.358Z,5.60
2023-12-09T08:28:36.064Z,5.80
2023-12-09T08:31:06.212Z,5.40
2023-12-09T08:33:37.538Z,3.50
2023-12-09T08:36:06.222Z,3.70
2023-12-09T08:38:34.066Z,4.50
2023-12-09T08:41:01.628Z,4.50
2023-12-09T08:43:29.288Z,5.80
2023-12-09T08:45:56.903Z,3.40
2023-12-09T08:48:30.112Z,4.10
2023-12-09T08:50:58.283Z,4.00
2023-12-09T08:53:25.982Z,5.30
2023-12-09T08:55:53.742Z,3.80
2023-12-09T08:58:21.408Z,3.70
2023-12-09T09:00:52.982Z,3.50
2023-12-09T09:03:21.373Z,3.20
2023-12-09T09:05:49.253Z,3.20
2023-12-09T09:08:16.972Z,2.10
2023-12-09T09:10:44.640Z,2.70
2023-12-09T09:13:12.327Z,2.00
2023-12-09T09:15:40.087Z,1.80
2023-12-09T09:18:08.396Z,2.40
2023-12-09T09:20:36.207Z,2.60
2023-12-09T09:23:03.824Z,2.30
2023-12-09T09:25:32.149Z,1.70
2023-12-09T09:27:59.807Z,1.50
2023-12-09T09:30:27.501Z,1.80
2023-12-09T09:32:55.341Z,1.50
2023-12-09T09:35:23.215Z,2.30
2023-12-09T09:37:50.773Z,1.80
2023-12-09T09:40:18.428Z,1.50
2023-12-09T09:42:57.283Z,2.10
2023-12-09T09:50:11.806Z,1.80
2023-12-09T09:52:41.931Z,1.80
2023-12-09T09:55:09.725Z,2.20
2023-12-09T09:57:37.509Z,1.40
2023-12-09T10:00:15.384Z,1.90
2023-12-09T10:02:55.335Z,1.90
2023-12-09T10:05:24.938Z,1.80
2023-12-09T10:07:53.371Z,1.50
2023-12-09T10:10:21.233Z,2.10
2023-12-09T10:12:49.295Z,2.20
2023-12-09T10:15:17.206Z,2.00
2023-12-09T10:17:45.560Z,2.20
2023-12-09T10:20:13.699Z,1.10
2023-12-09T10:22:41.712Z,1.60
2023-12-09T10:25:09.494Z,2.10
2023-12-09T10:27:37.023Z,2.40
2023-12-09T10:30:09.983Z,2.70
2023-12-09T10:32:38.018Z,2.30
2023-12-09T10:35:06.580Z,3.40
2023-12-09T10:37:34.551Z,2.80
2023-12-09T10:40:04.007Z,2.40
2023-12-09T10:42:32.053Z,2.10
2023-12-09T10:45:04.686Z,1.80
2023-12-09T10:47:32.534Z,2.00
2023-12-09T10:50:00.501Z,2.00
2023-12-09T10:52:28.456Z,2.60
2023-12-09T10:54:56.735Z,3.20
2023-12-09T10:57:24.899Z,2.20
2023-12-09T10:59:53.630Z,2.80
2023-12-09T11:02:22.424Z,2.90
2023-12-09T11:04:50.658Z,2.70
2023-12-09T11:07:18.313Z,2.60
2023-12-09T11:09:46.013Z,2.70
2023-12-09T11:12:30.141Z,3.60
2023-12-09T11:15:24.535Z,3.00
2023-12-09T11:17:55.175Z,2.50
2023-12-09T11:20:24.113Z,2.40
2023-12-09T11:22:52.007Z,2.50
2023-12-09T11:25:19.791Z,2.40
2023-12-09T11:27:50.202Z,2.80
2023-12-09T11:30:47.927Z,1.90
2023-12-09T11:33:15.938Z,3.90
2023-12-09T11:35:44.438Z,2.40
2023-12-09T11:38:11.990Z,3.00
2023-12-09T11:40:39.642Z,1.90
2023-12-09T11:43:10.086Z,2.80
2023-12-09T11:45:38.680Z,3.00
2023-12-09T11:48:06.912Z,2.70
2023-12-09T11:50:35.534Z,2.40
2023-12-09T11:53:03.379Z,3.30
2023-12-09T11:55:31.093Z,2.70
2023-12-09T11:57:58.931Z,2.30
2023-12-09T12:00:27.518Z,2.70
2023-12-09T12:02:55.478Z,1.70
2023-12-09T12:05:23.204Z,2.40
2023-12-09T12:07:50.871Z,1.80
2023-12-09T12:10:18.961Z,2.30
2023-12-09T12:12:46.775Z,3.70
2023-12-09T12:15:14.875Z,2.30
2023-12-09T12:17:42.937Z,2.80
2023-12-09T12:20:12.059Z,2.60
2023-12-09T12:22:43.104Z,2.10
2023-12-09T12:25:11.241Z,3.20
2023-12-09T12:27:43.091Z,2.10
2023-12-09T12:30:11.351Z,2.50
2023-12-09T12:32:39.714Z,2.40
2023-12-09T12:38:10.969Z,2.90
2023-12-09T12:40:38.526Z,3.20
2023-12-09T12:43:06.189Z,2.60
2023-12-09T12:45:34.237Z,2.70
2023-12-09T12:48:02.035Z,2.40
2023-12-09T12:50:29.799Z,2.60
2023-12-09T12:52:57.763Z,2.80
2023-12-09T12:55:25.532Z,3.20
2023-12-09T12:57:56.073Z,3.40
2023-12-09T13:00:24.445Z,3.00
2023-12-09T13:02:52.306Z,3.70
2023-12-09T13:05:19.969Z,2.70
2023-12-09T13:07:49.471Z,3.20
2023-12-09T13:10:17.155Z,3.50
2023-12-09T13:12:45.310Z,2.30
2023-12-09T13:15:13.088Z,2.50
2023-12-09T13:17:41.196Z,2.40
2023-12-09T13:20:11.282Z,2.20
2023-12-09T13:22:39.066Z,3.20
2023-12-09T13:25:08.249Z,2.30
2023-12-09T13:27:37.469Z,2.10
2023-12-09T13:30:08.373Z,2.90
2023-12-09T13:32:36.401Z,2.50
2023-12-09T13:35:05.689Z,3.40
2023-12-09T13:37:33.993Z,3.30
2023-12-09T13:40:02.504Z,2.70
2023-12-09T13:42:30.964Z,1.70
2023-12-09T13:44:59.761Z,2.20
2023-12-09T13:47:27.546Z,2.60
2023-12-09T13:49:55.262Z,2.70
2023-12-09T13:52:24.125Z,3.00
2023-12-09T13:54:53.282Z,4.00
2023-12-09T13:57:20.990Z,2.30
2023-12-09T13:59:48.860Z,2.50
2023-12-09T14:02:16.784Z,2.80
2023-12-09T14:04:44.505Z,2.60
2023-12-09T14:07:12.415Z,2.90
2023-12-09T14:09:40.052Z,2.10
2023-12-09T14:12:08.497Z,2.10
2023-12-09T14:14:36.222Z,2.10
2023-12-09T14:17:06.797Z,1.90
2023-12-09T14:19:34.666Z,2.70
2023-12-09T14:22:04.219Z,2.00
2023-12-09T14:24:31.899Z,3.10
2023-12-09T14:26:59.772Z,2.80
2023-12-09T14:29:27.348Z,2.60
2023-12-09T14:31:55.081Z,2.60
2023-12-09T14:34:23.186Z,1.90
2023-12-09T14:36:51.017Z,3.20
2023-12-09T14:39:19.124Z,2.90
2023-12-09T14:41:46.811Z,3.60
2023-12-09T14:44:14.765Z,2.30
2023-12-09T14:46:42.309Z,2.80
2023-12-09T14:49:10.066Z,2.80
2023-12-09T14:51:43.473Z,3.30
2023-12-09T14:54:15.769Z,2.40
2023-12-09T14:56:45.337Z,3.10
2023-12-09T14:59:13.266Z,2.30
2023-12-09T15:01:41.251Z,3.00
2023-12-09T15:04:09.098Z,2.10
2023-12-09T15:06:36.938Z,3.00
2023-12-09T15:09:04.786Z,3.80
2023-12-09T15:11:32.645Z,2.70
2023-12-09T15:14:00.197Z,3.00
2023-12-09T15:16:30.151Z,3.90
2023-12-09T15:18:57.967Z,2.50
2023-12-09T15:21:25.784Z,3.00
2023-12-09T15:23:53.726Z,3.90
2023-12-09T15:26:21.849Z,3.10
2023-12-09T15:28:50.528Z,4.10
2023-12-09T15:31:18.366Z,4.50
2023-12-09T15:33:46.221Z,2.40
2023-12-09T15:36:14.077Z,4.10
2023-12-09T15:38:42.021Z,3.90
2023-12-09T15:41:09.683Z,3.80
2023-12-09T15:43:37.394Z,4.00
2023-12-09T15:46:05.317Z,3.20
2023-12-09T15:48:33.142Z,3.30
2023-12-09T15:51:03.025Z,2.80
2023-12-09T15:53:30.973Z,3.20
2023-12-09T15:56:00.419Z,3.40
2023-12-09T15:58:28.237Z,2.60
2023-12-09T16:00:55.970Z,2.80
2023-12-09T16:03:23.954Z,3.30
2023-12-09T16:05:54.194Z,2.20
2023-12-09T16:08:22.871Z,1.70
2023-12-09T16:10:51.052Z,1.80
2023-12-09T16:13:19.272Z,1.10
2023-12-09T16:15:47.104Z,2.30
2023-12-09T16:18:15.328Z,2.70
2023-12-09T16:20:43.231Z,1.80
2023-12-09T16:23:10.893Z,3.60
2023-12-09T16:25:38.563Z,1.90
2023-12-09T16:28:07.042Z,2.10
2023-12-09T16:30:34.758Z,2.10
2023-12-09T16:33:03.246Z,2.10
2023-12-09T16:35:31.056Z,2.60
2023-12-09T16:37:58.928Z,2.40
2023-12-09T16:40:26.798Z,2.20
2023-12-09T16:42:54.565Z,2.10
2023-12-09T16:45:22.398Z,2.00
2023-12-09T16:47:50.216Z,2.30
2023-12-09T16:50:18.366Z,2.70
2023-12-09T16:52:46.034Z,4.00
2023-12-09T16:55:13.913Z,2.00
2023-12-09T16:57:41.598Z,3.10
2023-12-09T17:00:11.312Z,2.10
2023-12-09T17:02:39.724Z,2.00
2023-12-09T17:05:10.132Z,3.60
2023-12-09T17:07:37.740Z,2.50
2023-12-09T17:10:06.132Z,3.50
2023-12-09T17:12:33.752Z,2.50
2023-12-09T17:15:01.445Z,3.00
2023-12-09T17:17:29.134Z,3.40
2023-12-09T17:19:57.218Z,2.80
2023-12-09T17:22:26.798Z,2.20
2023-12-09T17:24:54.650Z,2.20
2023-12-09T17:27:22.334Z,2.80
2023-12-09T17:29:49.875Z,2.90
2023-12-09T17:32:17.634Z,3.40
2023-12-09T17:34:45.862Z,2.90
2023-12-09T17:37:13.682Z,2.70
2023-12-09T17:39:41.400Z,3.10
2023-12-09T17:42:09.166Z,4.20
2023-12-09T17:44:36.971Z,5.00
2023-12-09T17:47:05.358Z,3.90
2023-12-09T17:49:33.331Z,4.20
2023-12-09T17:52:01.702Z,3.70
2023-12-09T17:54:29.419Z,4.40
2023-12-09T17:56:57.124Z,4.30
2023-12-09T17:59:24.897Z,4.30
2023-12-09T18:01:52.550Z,4.50
2023-12-09T18:04:20.366Z,3.90
2023-12-09T18:06:48.380Z,4.10
2023-12-09T18:09:16.296Z,3.90
2023-12-09T18:11:44.330Z,6.10
2023-12-09T18:14:11.886Z,5.60
2023-12-09T18:16:39.959Z,4.30
2023-12-09T18:19:07.825Z,4.40
2023-12-09T18:21:36.498Z,3.80
2023-12-09T18:24:05.035Z,4.60
2023-12-09T18:26:32.701Z,4.20
2023-12-09T18:29:00.865Z,4.60
2023-12-09T18:31:29.416Z,4.20
2023-12-09T18:33:57.818Z,4.10
2023-12-09T18:36:25.770Z,3.90
2023-12-09T18:38:53.527Z,3.00
2023-12-09T18:41:21.422Z,4.20
2023-12-09T18:43:50.290Z,3.50
2023-12-09T18:46:18.159Z,5.80
2023-12-09T18:48:49.259Z,5.40
2023-12-09T18:51:17.277Z,4.80
2023-12-09T18:53:44.930Z,5.70
2023-12-09T18:56:12.687Z,6.90
2023-12-09T18:58:41.067Z,6.20
2023-12-09T19:01:11.265Z,7.20
2023-12-09T19:03:40.043Z,7.80
2023-12-09T19:06:10.026Z,5.60
2023-12-09T19:08:39.034Z,5.30
2023-12-09T19:11:07.413Z,5.50
2023-12-09T19:13:35.115Z,7.60
2023-12-09T19:16:03.924Z,6.10
2023-12-09T19:18:31.808Z,6.30
2023-12-09T19:20:59.661Z,7.50
2023-12-09T19:23:27.423Z,5.80
2023-12-09T19:25:55.080Z,7.40
2023-12-09T19:28:22.953Z,6.50
2023-12-09T19:30:50.686Z,5.10
2023-12-09T19:33:18.481Z,3.50
2023-12-09T19:35:46.356Z,4.50
2023-12-09T19:38:14.219Z,4.10
2023-12-09T19:40:41.840Z,7.30
2023-12-09T19:43:09.639Z,6.40
2023-12-09T19:45:37.333Z,5.80
2023-12-09T19:48:05.141Z,4.70
2023-12-09T19:50:32.950Z,6.90
2023-12-09T19:53:02.385Z,5.40
2023-12-09T19:55:30.099Z,5.60
2023-12-09T19:57:58.623Z,5.60
2023-12-09T20:00:26.594Z,5.20
2023-12-09T20:02:54.438Z,5.20
2023-12-09T20:05:23.422Z,5.90
2023-12-09T20:07:51.182Z,5.10
2023-12-09T20:10:18.845Z,6.20
2023-12-09T20:12:46.724Z,6.20
2023-12-09T20:15:15.097Z,6.20
2023-12-09T20:17:42.731Z,6.90
2023-12-09T20:20:11.109Z,5.20
2023-12-09T20:22:39.010Z,6.00
2023-12-09T20:25:07.387Z,4.70
2023-12-09T20:27:35.237Z,5.70
2023-12-09T20:30:03.541Z,2.60
2023-12-09T20:32:31.525Z,4.20
2023-12-09T20:34:59.769Z,3.40
2023-12-09T20:37:27.428Z,3.70
2023-12-09T20:39:58.423Z,4.30
2023-12-09T20:42:26.537Z,3.20
2023-12-09T20:44:54.697Z,4.40
2023-12-09T20:47:23.000Z,5.50
2023-12-09T20:49:52.271Z,5.20
2023-12-09T20:52:20.671Z,5.40
2023-12-09T20:54:48.774Z,6.20
2023-12-09T20:57:16.780Z,4.30
2023-12-09T20:59:44.586Z,4.60
2023-12-09T21:02:12.341Z,4.80
2023-12-09T21:04:45.414Z,5.70
2023-12-09T21:07:13.574Z,6.30
2023-12-09T21:09:41.378Z,5.40
2023-12-09T21:12:09.496Z,5.80
2023-12-09T21:14:37.328Z,6.00
2023-12-09T21:17:05.391Z,6.60
2023-12-09T21:19:36.175Z,7.60
2023-12-09T21:22:04.649Z,7.10
2023-12-09T21:24:32.805Z,6.10
2023-12-09T21:27:00.749Z,5.40
2023-12-09T21:29:28.607Z,6.80
2023-12-09T21:31:58.433Z,7.80
2023-12-09T21:34:26.163Z,7.40
2023-12-09T21:36:54.168Z,5.90
2023-12-09T21:39:21.861Z,3.90
2023-12-09T21:41:49.592Z,4.00
2023-12-09T21:44:17.247Z,3.40
2023-12-09T21:46:44.802Z,4.60
2023-12-09T21:49:12.926Z,4.10
2023-12-09T21:51:41.544Z,6.20
2023-12-09T21:54:09.420Z,5.10
2023-12-09T21:56:37.208Z,5.20
2023-12-09T21:59:05.479Z,6.50
2023-12-09T22:01:34.288Z,4.40
2023-12-09T22:04:04.387Z,4.50
2023-12-09T22:06:32.183Z,7.90
2023-12-09T22:09:00.684Z,4.70
2023-12-09T22:11:28.404Z,5.10
2023-12-09T22:13:56.053Z,5.10
2023-12-09T22:16:23.721Z,5.50
2023-12-09T22:18:51.601Z,6.10
2023-12-09T22:21:19.735Z,5.00
2023-12-09T22:23:47.551Z,5.60
2023-12-09T22:26:15.186Z,5.40
2023-12-09T22:28:43.362Z,5.90
2023-12-09T22:31:11.233Z,5.50
2023-12-09T22:33:41.522Z,3.90
2023-12-09T22:36:12.785Z,5.00
2023-12-09T22:38:40.458Z,4.50
2023-12-09T22:41:08.206Z,3.50
2023-12-09T22:43:36.093Z,6.10
2023-12-09T22:46:04.633Z,6.50
2023-12-09T22:48:32.540Z,5.60
2023-12-09T22:51:02.620Z,6.50
2023-12-09T22:53:30.325Z,5.70
2023-12-09T22:56:12.161Z,6.20
2023-12-09T22:58:41.832Z,5.60
2023-12-09T23:01:09.760Z,6.70
2023-12-09T23:03:37.633Z,4.90
2023-12-09T23:06:06.643Z,5.30
2023-12-09T23:08:35.818Z,6.90
2023-12-09T23:11:06.230Z,5.70
2023-12-09T23:13:33.950Z,4.70
2023-12-09T23:16:01.675Z,6.10
2023-12-09T23:18:30.435Z,6.30
2023-12-09T23:20:58.166Z,5.40
2023-12-09T23:23:25.827Z,4.40
2023-12-09T23:25:54.715Z,4.60
2023-12-09T23:28:23.814Z,3.80
2023-12-09T23:30:51.568Z,4.50
2023-12-09T23:33:19.594Z,5.10
2023-12-09T23:35:47.837Z,5.20
2023-12-09T23:38:15.596Z,5.30
2023-12-09T23:40:43.562Z,6.30
2023-12-09T23:43:11.286Z,5.10
2023-12-09T23:45:39.091Z,6.30
2023-12-09T23:48:07.728Z,5.90
2023-12-09T23:50:35.543Z,6.70
2023-12-09T23:53:03.317Z,5.30
2023-12-09T23:55:31.085Z,5.30
2023-12-09T23:57:58.800Z,6.50
